Time;durP1;ratioP1;P1;durP2;ratioP2;P2;SDS_P1;SDS_P2;PMS_P1;PMS_P2;Temp;Humidity;BMP_temperature;BMP_pressure;BME280_temperature;BME280_humidity;BME280_pressure;Samples;Min_cycle;Max_cycle;Signal;HPM_P1;HPM_P2
2021/10/16 00:00:49;;;;;;;11.40;7.70;;;8.00;99.90;;;;;;5142762;28;20192;-83
2021/10/16 00:03:15;;;;;;;10.10;6.80;;;8.00;99.90;;;;;;5142805;28;20647;-83
2021/10/16 00:05:41;;;;;;;10.67;7.37;;;7.90;99.90;;;;;;5141861;28;20186;-83
2021/10/16 00:08:06;;;;;;;9.50;6.83;;;7.90;99.90;;;;;;5143959;28;20176;-83
2021/10/16 00:10:32;;;;;;;12.33;7.43;;;7.80;99.90;;;;;;5142669;28;20591;-83
2021/10/16 00:12:58;;;;;;;9.17;7.50;;;7.80;99.90;;;;;;5143812;28;20529;-83
2021/10/16 00:15:25;;;;;;;11.07;7.77;;;7.90;99.90;;;;;;5143596;28;20180;-83
2021/10/16 00:17:50;;;;;;;12.40;7.57;;;7.80;99.90;;;;;;5141751;28;20205;-83
2021/10/16 00:20:16;;;;;;;11.67;7.60;;;7.90;99.90;;;;;;5142221;28;20606;-83
2021/10/16 00:22:42;;;;;;;9.27;6.90;;;7.90;99.90;;;;;;5143004;28;20183;-83
2021/10/16 00:25:08;;;;;;;9.17;7.53;;;7.90;99.90;;;;;;5145268;28;20179;-82
2021/10/16 00:27:34;;;;;;;10.10;7.73;;;8.00;99.90;;;;;;5144715;28;20556;-82
2021/10/16 00:29:59;;;;;;;11.33;7.83;;;8.00;99.90;;;;;;5143013;28;20188;-83
2021/10/16 00:32:25;;;;;;;11.90;8.57;;;8.00;99.90;;;;;;5139461;28;20190;-83
2021/10/16 00:34:51;;;;;;;10.23;7.10;;;8.10;99.90;;;;;;5138118;28;20186;-83
2021/10/16 00:37:16;;;;;;;9.70;7.17;;;8.10;99.90;;;;;;5138064;28;20179;-83
2021/10/16 00:39:42;;;;;;;24.20;15.83;;;8.10;99.90;;;;;;5138748;28;20210;-83
2021/10/16 00:42:08;;;;;;;21.33;10.97;;;8.10;99.90;;;;;;5136560;28;20173;-83
2021/10/16 00:44:34;;;;;;;16.50;10.80;;;8.10;99.90;;;;;;5135532;28;20241;-83
2021/10/16 00:47:00;;;;;;;15.60;10.97;;;8.10;99.90;;;;;;5136803;28;20183;-83
2021/10/16 00:49:27;;;;;;;16.30;10.37;;;8.00;99.90;;;;;;5135285;28;20198;-83
2021/10/16 00:51:53;;;;;;;14.20;10.53;;;8.00;99.90;;;;;;5142637;28;20279;-83
2021/10/16 00:54:23;;;;;;;13.20;9.80;;;7.80;99.90;;;;;;5144087;28;20184;-83
2021/10/16 00:56:50;;;;;;;13.33;8.90;;;7.80;99.90;;;;;;5144813;28;20629;-83
2021/10/16 00:59:17;;;;;;;13.00;8.07;;;7.80;99.90;;;;;;5142729;28;20251;-83
2021/10/16 01:01:43;;;;;;;12.73;8.43;;;7.70;99.90;;;;;;5143239;28;20214;-83
2021/10/16 01:04:09;;;;;;;13.90;9.97;;;7.60;99.90;;;;;;5142655;27;20176;-83
2021/10/16 01:06:36;;;;;;;13.00;9.23;;;7.50;99.90;;;;;;5149139;27;20187;-84
2021/10/16 01:09:08;;;;;;;15.43;9.40;;;7.50;99.90;;;;;;5148380;27;20727;-83
2021/10/16 01:11:34;;;;;;;15.30;10.63;;;7.40;99.90;;;;;;5150344;27;20196;-85
2021/10/16 01:14:03;;;;;;;13.90;9.70;;;7.30;99.90;;;;;;5150224;27;20173;-84
2021/10/16 01:16:29;;;;;;;14.07;8.70;;;7.30;99.90;;;;;;5148706;27;20189;-83
2021/10/16 01:18:55;;;;;;;12.17;9.47;;;7.20;99.90;;;;;;5148645;27;20570;-84
2021/10/16 01:21:21;;;;;;;17.53;12.20;;;7.10;99.90;;;;;;5147155;27;20178;-83
2021/10/16 01:23:47;;;;;;;17.50;11.87;;;7.10;99.90;;;;;;5149169;27;20242;-84
2021/10/16 01:26:13;;;;;;;17.20;10.90;;;7.10;99.90;;;;;;5147692;27;20175;-84
2021/10/16 01:28:39;;;;;;;25.10;14.23;;;7.00;99.90;;;;;;5149554;27;20197;-83
2021/10/16 01:31:05;;;;;;;19.27;11.83;;;7.00;99.90;;;;;;5149111;27;20159;-83
2021/10/16 01:33:31;;;;;;;13.67;9.33;;;6.90;99.90;;;;;;5154020;27;20182;-83
2021/10/16 01:36:06;;;;;;;13.30;8.37;;;6.90;99.90;;;;;;5149737;27;20190;-83
2021/10/16 01:38:33;;;;;;;11.73;8.33;;;6.80;99.90;;;;;;5150310;27;20258;-83
2021/10/16 01:40:59;;;;;;;11.90;8.97;;;6.80;99.90;;;;;;5152091;27;20179;-83
2021/10/16 01:43:26;;;;;;;15.73;9.40;;;6.70;99.90;;;;;;5157045;27;20194;-83
2021/10/16 01:45:53;;;;;;;11.17;8.50;;;6.70;99.90;;;;;;5156742;27;20168;-83
2021/10/16 01:48:26;;;;;;;11.30;9.03;;;6.70;99.90;;;;;;5157448;27;20308;-82
2021/10/16 01:50:54;;;;;;;12.37;8.67;;;6.70;99.90;;;;;;5157385;27;20218;-83
2021/10/16 01:53:20;;;;;;;10.90;8.33;;;6.60;99.90;;;;;;5151424;27;20311;-83
2021/10/16 01:55:46;;;;;;;12.07;8.43;;;6.60;99.90;;;;;;5145802;27;20575;-83
2021/10/16 01:58:15;;;;;;;14.00;8.70;;;6.60;99.90;;;;;;5145807;27;20178;-83
2021/10/16 02:00:45;;;;;;;12.17;8.77;;;6.60;99.90;;;;;;5147881;27;20429;-83
2021/10/16 02:03:11;;;;;;;10.30;7.83;;;6.60;99.90;;;;;;5145001;27;20197;-83
2021/10/16 02:05:42;;;;;;;10.47;8.43;;;6.60;99.90;;;;;;5145861;27;20401;-83
2021/10/16 02:08:09;;;;;;;13.73;8.93;;;6.70;99.90;;;;;;5145970;27;20173;-84
2021/10/16 02:10:34;;;;;;;10.80;7.57;;;6.70;99.90;;;;;;5145767;27;20566;-83
2021/10/16 02:13:00;;;;;;;11.10;7.30;;;6.70;99.90;;;;;;5145794;27;20172;-84
2021/10/16 02:15:26;;;;;;;9.53;7.63;;;6.70;99.90;;;;;;5145847;27;20192;-83
2021/10/16 02:17:51;;;;;;;11.60;7.50;;;6.70;99.90;;;;;;5145829;27;20197;-83
2021/10/16 02:20:17;;;;;;;13.87;7.73;;;6.80;99.90;;;;;;5146426;27;20215;-83
2021/10/16 02:22:43;;;;;;;12.47;9.37;;;6.80;99.90;;;;;;5145576;27;20183;-83
2021/10/16 02:25:08;;;;;;;14.23;8.23;;;6.70;99.90;;;;;;5147215;27;20175;-83
2021/10/16 02:27:34;;;;;;;10.47;7.50;;;6.70;99.90;;;;;;5147015;27;20186;-83
2021/10/16 02:30:00;;;;;;;9.97;7.17;;;6.80;99.90;;;;;;5146624;27;20199;-83
2021/10/16 02:32:25;;;;;;;9.97;7.70;;;6.80;99.90;;;;;;5154384;27;20216;-83
2021/10/16 02:34:51;;;;;;;13.60;8.13;;;6.80;99.90;;;;;;5149751;27;20641;-83
2021/10/16 02:37:17;;;;;;;12.10;7.00;;;6.80;99.90;;;;;;5150825;27;20177;-83
2021/10/16 02:39:42;;;;;;;10.03;7.77;;;6.80;99.90;;;;;;5147296;27;20773;-83
2021/10/16 02:42:08;;;;;;;9.53;7.03;;;6.80;99.90;;;;;;5145732;27;20581;-83
2021/10/16 02:44:34;;;;;;;10.63;7.77;;;6.80;99.90;;;;;;5143811;27;20195;-83
2021/10/16 02:47:00;;;;;;;10.93;7.87;;;6.80;99.90;;;;;;5145630;27;20175;-83
2021/10/16 02:49:26;;;;;;;12.03;7.57;;;6.80;99.90;;;;;;5144058;27;20248;-83
2021/10/16 02:51:52;;;;;;;9.83;7.40;;;6.70;99.90;;;;;;5144072;27;20265;-83
2021/10/16 02:54:18;;;;;;;10.47;6.97;;;6.70;99.90;;;;;;5146474;27;20175;-83
2021/10/16 02:56:43;;;;;;;10.07;7.53;;;6.70;99.90;;;;;;5144253;27;20171;-83
2021/10/16 02:59:09;;;;;;;10.47;7.97;;;6.50;99.90;;;;;;5143652;27;20215;-83
2021/10/16 03:01:34;;;;;;;9.93;7.30;;;6.50;99.90;;;;;;5144406;27;20175;-83
2021/10/16 03:04:00;;;;;;;10.03;7.70;;;6.40;99.90;;;;;;5145678;27;20279;-83
2021/10/16 03:06:26;;;;;;;10.30;7.57;;;6.40;99.90;;;;;;5145167;27;20318;-83
2021/10/16 03:08:51;;;;;;;15.20;7.23;;;6.20;99.90;;;;;;5144983;27;20202;-83
2021/10/16 03:11:17;;;;;;;13.10;8.53;;;6.20;99.90;;;;;;5146492;27;20175;-83
2021/10/16 03:13:43;;;;;;;8.87;7.43;;;6.10;99.90;;;;;;5144551;27;20263;-84
2021/10/16 03:16:10;;;;;;;10.17;7.80;;;6.10;99.90;;;;;;5144797;27;20694;-83
2021/10/16 03:18:35;;;;;;;11.13;6.97;;;5.90;99.90;;;;;;5144841;27;20198;-83
2021/10/16 03:21:01;;;;;;;11.13;7.43;;;5.90;99.90;;;;;;5148514;27;20185;-83
2021/10/16 03:23:27;;;;;;;10.17;8.10;;;5.90;99.90;;;;;;5148634;27;20265;-84
2021/10/16 03:25:53;;;;;;;9.20;6.50;;;5.80;99.90;;;;;;5147985;27;20175;-83
2021/10/16 03:28:18;;;;;;;11.57;7.20;;;5.80;99.90;;;;;;5145587;27;20175;-83
2021/10/16 03:30:44;;;;;;;9.27;7.40;;;5.70;99.90;;;;;;5144448;27;20240;-83
2021/10/16 03:33:10;;;;;;;11.67;7.63;;;5.70;99.90;;;;;;5146377;27;20187;-83
2021/10/16 03:35:36;;;;;;;8.33;7.03;;;5.60;99.90;;;;;;5146829;27;20175;-83
2021/10/16 03:38:01;;;;;;;9.47;7.00;;;5.60;99.90;;;;;;5146439;27;20175;-83
2021/10/16 03:40:27;;;;;;;9.83;6.43;;;5.50;99.90;;;;;;5140242;27;20206;-83
2021/10/16 03:42:53;;;;;;;9.67;7.07;;;5.50;99.90;;;;;;5139988;27;20186;-82
2021/10/16 03:45:20;;;;;;;8.10;6.73;;;5.40;99.90;;;;;;5139376;27;20171;-84
2021/10/16 03:47:46;;;;;;;10.33;7.60;;;5.40;99.90;;;;;;5140547;27;20166;-82
2021/10/16 03:50:12;;;;;;;8.67;6.90;;;5.30;99.90;;;;;;5139701;27;20428;-82
2021/10/16 03:52:38;;;;;;;16.50;7.73;;;5.30;99.90;;;;;;5137973;28;20183;-82
2021/10/16 03:55:04;;;;;;;9.63;7.13;;;5.30;99.90;;;;;;5136744;28;20183;-82
2021/10/16 03:57:29;;;;;;;9.17;6.13;;;5.20;99.90;;;;;;5137248;28;20171;-82
2021/10/16 03:59:55;;;;;;;9.20;7.03;;;5.20;99.90;;;;;;5137182;28;20561;-83
2021/10/16 04:02:21;;;;;;;9.07;6.50;;;5.20;99.90;;;;;;5141367;28;20166;-83
2021/10/16 04:04:46;;;;;;;9.00;6.57;;;5.20;99.90;;;;;;5144381;28;20167;-84
2021/10/16 04:07:13;;;;;;;10.20;6.50;;;5.40;99.90;;;;;;5144035;28;20171;-83
2021/10/16 04:09:38;;;;;;;12.23;7.30;;;5.20;99.90;;;;;;5142965;28;20607;-83
2021/10/16 04:12:04;;;;;;;8.60;7.10;;;5.10;99.90;;;;;;5144107;28;20438;-83
2021/10/16 04:14:30;;;;;;;10.27;7.43;;;5.10;99.90;;;;;;5143516;28;20194;-83
2021/10/16 04:16:55;;;;;;;8.67;6.57;;;5.10;99.90;;;;;;5143566;28;20716;-83
2021/10/16 04:19:21;;;;;;;9.10;7.07;;;5.00;99.90;;;;;;5143374;28;20217;-83
2021/10/16 04:21:47;;;;;;;10.53;7.10;;;5.00;99.90;;;;;;5145008;28;20237;-83
2021/10/16 04:24:12;;;;;;;9.57;7.67;;;5.00;99.90;;;;;;5144340;28;20170;-83
2021/10/16 04:26:38;;;;;;;10.97;7.90;;;4.90;99.90;;;;;;5144223;28;20269;-83
2021/10/16 04:29:05;;;;;;;9.53;7.47;;;5.00;99.90;;;;;;5145943;28;20191;-83
2021/10/16 04:31:31;;;;;;;10.93;7.43;;;;;;;;;;5144189;28;20178;-83
2021/10/16 04:33:56;;;;;;;12.57;8.13;;;5.00;99.90;;;;;;5144218;28;20439;-83
2021/10/16 04:36:22;;;;;;;11.07;7.77;;;5.00;99.90;;;;;;5147961;28;20401;-83
2021/10/16 04:38:49;;;;;;;10.63;7.23;;;4.90;99.90;;;;;;5155568;27;20212;-84
2021/10/16 04:41:16;;;;;;;11.50;7.17;;;4.90;99.90;;;;;;5160346;27;20171;-82
2021/10/16 04:43:43;;;;;;;9.97;7.20;;;4.90;99.90;;;;;;5156439;27;20408;-83
2021/10/16 04:46:12;;;;;;;15.80;7.43;;;4.90;99.90;;;;;;5148757;27;20495;-84
2021/10/16 04:48:41;;;;;;;11.00;7.07;;;4.90;99.90;;;;;;5147796;27;20419;-83
2021/10/16 04:51:07;;;;;;;12.70;6.93;;;4.90;99.90;;;;;;5148873;27;20492;-84
2021/10/16 04:53:33;;;;;;;10.77;6.90;;;;;;;;;;5148506;27;20416;-83
2021/10/16 04:55:59;;;;;;;10.07;7.57;;;4.90;99.90;;;;;;5149813;27;20167;-83
2021/10/16 04:58:24;;;;;;;9.93;7.17;;;4.80;99.90;;;;;;5154510;27;20501;-83
2021/10/16 05:00:50;;;;;;;10.13;8.00;;;4.90;99.90;;;;;;5155084;27;20214;-84
2021/10/16 05:03:16;;;;;;;11.83;7.93;;;;;;;;;;5155622;27;20167;-83
2021/10/16 05:05:42;;;;;;;10.47;8.60;;;4.80;99.90;;;;;;5153440;27;20183;-83
2021/10/16 05:08:07;;;;;;;13.60;7.63;;;4.80;99.90;;;;;;5148963;27;20944;-83
2021/10/16 05:10:34;;;;;;;8.63;6.90;;;4.70;99.90;;;;;;5146029;27;20553;-84
2021/10/16 05:13:00;;;;;;;11.13;7.07;;;4.70;99.90;;;;;;5147632;27;20521;-84
2021/10/16 05:15:26;;;;;;;7.63;6.13;;;4.60;99.90;;;;;;5146817;27;20409;-83
2021/10/16 05:17:53;;;;;;;9.73;6.70;;;;;;;;;;5146391;27;20582;-83
2021/10/16 05:20:19;;;;;;;9.50;7.67;;;4.60;99.90;;;;;;5146723;27;20263;-84
2021/10/16 05:22:45;;;;;;;9.97;7.27;;;4.60;99.90;;;;;;5146297;27;20752;-83
2021/10/16 05:25:11;;;;;;;13.73;6.47;;;4.50;99.90;;;;;;5145530;27;20453;-83
2021/10/16 05:27:38;;;;;;;7.40;6.47;;;4.60;99.90;;;;;;5145282;27;20783;-83
2021/10/16 05:30:05;;;;;;;7.20;5.90;;;4.60;99.90;;;;;;5146589;27;20432;-83
2021/10/16 05:32:31;;;;;;;8.37;6.23;;;4.60;99.90;;;;;;5145989;27;20429;-84
2021/10/16 05:34:57;;;;;;;11.40;6.90;;;4.60;99.90;;;;;;5145340;27;20416;-84
2021/10/16 05:37:23;;;;;;;10.13;6.20;;;4.60;99.90;;;;;;5148690;27;20182;-84
2021/10/16 05:39:48;;;;;;;10.63;7.53;;;4.60;99.90;;;;;;5146667;27;20213;-84
2021/10/16 05:42:14;;;;;;;10.03;7.07;;;4.50;99.90;;;;;;5147439;27;20171;-83
2021/10/16 05:44:40;;;;;;;9.37;7.10;;;5.00;99.90;;;;;;5146990;27;20224;-84
2021/10/16 05:47:05;;;;;;;7.60;6.40;;;4.60;99.90;;;;;;5146237;27;20171;-84
2021/10/16 05:49:31;;;;;;;8.10;6.37;;;4.60;99.90;;;;;;5147171;27;20259;-84
2021/10/16 05:51:57;;;;;;;8.77;6.53;;;4.60;99.90;;;;;;5145722;27;20174;-84
2021/10/16 05:54:23;;;;;;;7.27;6.43;;;4.60;99.90;;;;;;5146429;27;20179;-83
2021/10/16 05:56:48;;;;;;;11.27;7.20;;;4.60;99.90;;;;;;5147960;27;20182;-84
2021/10/16 05:59:14;;;;;;;9.17;7.23;;;4.60;99.90;;;;;;5148202;27;20202;-83
2021/10/16 06:01:40;;;;;;;8.87;6.10;;;4.90;99.90;;;;;;5147395;27;20178;-83
2021/10/16 06:04:05;;;;;;;9.37;7.07;;;4.60;99.90;;;;;;5148928;27;20250;-83
2021/10/16 06:06:31;;;;;;;10.83;6.63;;;4.80;99.90;;;;;;5150317;27;20206;-83
2021/10/16 06:08:56;;;;;;;9.53;6.77;;;4.90;99.90;;;;;;5148402;27;20198;-83
2021/10/16 06:11:22;;;;;;;8.37;6.70;;;4.90;99.90;;;;;;5151956;27;20183;-83
2021/10/16 06:13:48;;;;;;;8.30;7.17;;;4.90;99.90;;;;;;5147287;27;20689;-83
2021/10/16 06:16:13;;;;;;;7.50;6.50;;;4.90;99.90;;;;;;5144902;27;20175;-84
2021/10/16 06:18:43;;;;;;;8.10;6.17;;;5.10;99.90;;;;;;5145296;27;20225;-83
2021/10/16 06:21:09;;;;;;;10.27;7.03;;;5.10;99.90;;;;;;5147352;27;20156;-84
2021/10/16 06:23:35;;;;;;;11.27;7.00;;;5.10;99.90;;;;;;5145519;27;20166;-84
2021/10/16 06:26:01;;;;;;;10.20;6.93;;;5.10;99.90;;;;;;5144896;27;20174;-84
2021/10/16 06:28:26;;;;;;;8.73;6.23;;;5.20;99.90;;;;;;5144381;27;20175;-84
2021/10/16 06:30:52;;;;;;;9.13;6.67;;;;;;;;;;5145010;27;20202;-84
2021/10/16 06:33:18;;;;;;;8.27;6.03;;;5.10;99.90;;;;;;5144935;27;20215;-83
2021/10/16 06:35:44;;;;;;;13.87;7.63;;;5.10;99.90;;;;;;5146503;27;20404;-83
2021/10/16 06:38:10;;;;;;;12.60;7.20;;;5.10;99.90;;;;;;5144779;27;20179;-83
2021/10/16 06:40:35;;;;;;;11.77;6.63;;;5.20;99.90;;;;;;5148744;27;20239;-83
2021/10/16 06:43:01;;;;;;;10.00;7.43;;;5.20;99.90;;;;;;5158417;27;20190;-82
2021/10/16 06:45:28;;;;;;;12.93;6.90;;;5.30;99.90;;;;;;5156774;27;20191;-83
2021/10/16 06:47:54;;;;;;;10.03;6.93;;;5.30;99.90;;;;;;5154674;27;20180;-83
2021/10/16 06:50:20;;;;;;;10.40;7.00;;;5.30;99.90;;;;;;5141922;27;20258;-83
2021/10/16 06:52:45;;;;;;;8.17;6.10;;;5.30;99.90;;;;;;5142498;27;20252;-83
2021/10/16 06:55:11;;;;;;;10.73;7.10;;;5.20;99.90;;;;;;5140947;27;20183;-83
2021/10/16 06:57:37;;;;;;;8.10;6.70;;;5.20;99.90;;;;;;5141091;27;20179;-83
2021/10/16 07:00:04;;;;;;;9.53;7.00;;;5.30;99.90;;;;;;5140523;27;20206;-83
2021/10/16 07:02:30;;;;;;;13.27;7.87;;;5.30;99.90;;;;;;5138552;27;20175;-83
2021/10/16 07:04:56;;;;;;;11.33;7.40;;;;;;;;;;5138648;27;20174;-83
2021/10/16 07:07:22;;;;;;;12.50;7.93;;;5.30;99.90;;;;;;5137756;27;20170;-83
2021/10/16 07:09:48;;;;;;;13.93;9.47;;;5.40;99.90;;;;;;5135993;27;20539;-83
2021/10/16 07:12:14;;;;;;;16.87;11.40;;;5.50;99.90;;;;;;5140318;27;20167;-83
2021/10/16 07:14:40;;;;;;;11.47;7.90;;;5.60;99.90;;;;;;5143581;27;20175;-84
2021/10/16 07:17:05;;;;;;;12.93;8.60;;;5.70;99.90;;;;;;5145404;27;20171;-83
2021/10/16 07:19:31;;;;;;;14.00;9.83;;;6.00;99.90;;;;;;5144806;27;20209;-83
2021/10/16 07:21:57;;;;;;;15.40;10.07;;;6.00;99.90;;;;;;5143581;27;20213;-83
2021/10/16 07:24:23;;;;;;;18.60;10.47;;;6.20;99.90;;;;;;5144184;27;20219;-83
2021/10/16 07:26:49;;;;;;;9.53;7.23;;;6.40;99.90;;;;;;5144190;27;20231;-84
2021/10/16 07:29:15;;;;;;;18.30;10.57;;;6.50;99.90;;;;;;5144961;27;20203;-83
2021/10/16 07:31:41;;;;;;;15.87;9.27;;;6.70;99.90;;;;;;5142703;27;20188;-84
2021/10/16 07:34:06;;;;;;;16.87;10.53;;;6.80;99.90;;;;;;5142904;27;20178;-83
2021/10/16 07:36:34;;;;;;;8.97;7.10;;;;;;;;;;5142695;27;20178;-83
2021/10/16 07:39:05;;;;;;;10.73;7.50;;;7.00;99.90;;;;;;5142788;27;20297;-83
2021/10/16 07:41:31;;;;;;;12.77;6.90;;;7.10;99.90;;;;;;5142568;27;20182;-83
2021/10/16 07:43:57;;;;;;;8.73;7.03;;;7.40;99.90;;;;;;5142835;27;20180;-83
2021/10/16 07:46:23;;;;;;;14.60;8.23;;;8.00;99.90;;;;;;5143447;27;20625;-83
2021/10/16 07:48:48;;;;;;;9.70;7.07;;;9.00;99.90;;;;;;5144475;27;20711;-84
2021/10/16 07:51:14;;;;;;;9.50;7.07;;;9.00;99.90;;;;;;5143169;27;20177;-84
2021/10/16 07:53:40;;;;;;;10.80;7.10;;;8.90;99.90;;;;;;5142938;27;20642;-84
2021/10/16 07:56:06;;;;;;;8.40;6.97;;;8.80;99.90;;;;;;5143639;28;20194;-83
2021/10/16 07:58:32;;;;;;;10.70;8.40;;;9.00;99.90;;;;;;5145037;28;20199;-83
2021/10/16 08:00:57;;;;;;;9.63;7.00;;;9.00;99.90;;;;;;5143930;28;20628;-83
2021/10/16 08:03:23;;;;;;;10.80;7.50;;;9.50;99.90;;;;;;5144825;28;20181;-84
2021/10/16 08:05:49;;;;;;;15.03;9.53;;;9.80;99.90;;;;;;5144995;28;20191;-83
2021/10/16 08:08:15;;;;;;;12.57;8.97;;;10.50;99.90;;;;;;5142903;28;20650;-84
2021/10/16 08:10:40;;;;;;;20.07;12.00;;;11.20;99.90;;;;;;5144447;28;20189;-84
2021/10/16 08:13:06;;;;;;;10.90;6.90;;;11.90;99.90;;;;;;5142705;27;20197;-84
2021/10/16 08:15:34;;;;;;;11.03;6.40;;;12.50;99.90;;;;;;5148228;27;20165;-84
2021/10/16 08:18:00;;;;;;;12.63;9.10;;;13.20;99.90;;;;;;5149515;27;20162;-84
2021/10/16 08:20:26;;;;;;;12.27;8.20;;;13.50;99.90;;;;;;5147202;27;20218;-84
2021/10/16 08:22:52;;;;;;;10.17;7.33;;;13.80;99.90;;;;;;5147738;27;20221;-84
2021/10/16 08:25:17;;;;;;;11.97;8.83;;;14.10;99.90;;;;;;5149626;27;20174;-84
2021/10/16 08:27:46;;;;;;;10.20;8.20;;;14.50;99.90;;;;;;5150873;27;20237;-84
2021/10/16 08:30:12;;;;;;;12.27;9.10;;;14.50;99.90;;;;;;5147333;27;20213;-84
2021/10/16 08:32:39;;;;;;;11.93;8.80;;;14.70;99.90;;;;;;5147829;27;20191;-84
2021/10/16 08:35:05;;;;;;;10.90;8.70;;;14.80;99.90;;;;;;5148391;27;20175;-84
2021/10/16 08:37:31;;;;;;;12.13;8.03;;;14.90;99.90;;;;;;5148015;27;20242;-85
2021/10/16 08:39:57;;;;;;;14.10;9.57;;;14.90;99.90;;;;;;5149691;27;20234;-85
2021/10/16 08:42:22;;;;;;;12.17;8.97;;;15.00;99.90;;;;;;5149938;27;20180;-85
2021/10/16 08:44:48;;;;;;;14.53;10.30;;;15.30;99.90;;;;;;5150206;27;20181;-84
2021/10/16 08:47:16;;;;;;;11.57;9.50;;;15.60;99.90;;;;;;5159141;27;20177;-84
2021/10/16 08:49:44;;;;;;;14.03;10.40;;;15.90;99.90;;;;;;5158843;27;20197;-84
2021/10/16 08:52:10;;;;;;;10.57;9.30;;;15.90;99.90;;;;;;5155283;27;20585;-85
2021/10/16 08:54:39;;;;;;;12.33;10.13;;;15.90;99.90;;;;;;5147557;27;20647;-84
2021/10/16 08:57:05;;;;;;;11.03;9.77;;;15.90;99.90;;;;;;5149494;27;20170;-84
2021/10/16 08:59:31;;;;;;;12.23;9.80;;;16.10;99.90;;;;;;5147879;27;20209;-84
2021/10/16 09:02:03;;;;;;;12.67;8.77;;;16.20;99.90;;;;;;5149225;27;20266;-84
2021/10/16 09:04:30;;;;;;;11.37;8.73;;;16.40;99.90;;;;;;5147014;27;20183;-84
2021/10/16 09:06:56;;;;;;;10.13;8.97;;;16.40;99.90;;;;;;5147847;27;20242;-84
2021/10/16 09:09:29;;;;;;;11.07;9.20;;;16.50;99.90;;;;;;5147100;27;20214;-85
2021/10/16 09:11:56;;;;;;;10.80;8.93;;;16.50;99.90;;;;;;5147536;27;20262;-84
2021/10/16 09:14:27;;;;;;;11.83;9.20;;;16.50;99.90;;;;;;5146526;27;20290;-84
2021/10/16 09:17:02;;;;;;;11.13;9.47;;;16.70;99.90;;;;;;5148893;27;20193;-85
2021/10/16 09:19:33;;;;;;;10.60;8.73;;;17.00;99.90;;;;;;5147419;27;20221;-84
2021/10/16 09:22:09;;;;;;;12.90;9.93;;;17.20;99.90;;;;;;5148974;27;20173;-84
2021/10/16 09:24:42;;;;;;;10.73;8.83;;;17.20;99.90;;;;;;5146842;27;20260;-84
2021/10/16 09:27:18;;;;;;;10.37;9.27;;;17.10;99.90;;;;;;5147244;27;20256;-84
2021/10/16 09:29:50;;;;;;;10.33;8.63;;;17.00;99.90;;;;;;5146423;27;20209;-84
2021/10/16 09:32:19;;;;;;;11.03;9.33;;;17.10;99.90;;;;;;5146603;27;20195;-84
2021/10/16 09:34:46;;;;;;;11.40;8.90;;;17.40;99.90;;;;;;5146053;27;20182;-84
2021/10/16 09:37:17;;;;;;;11.43;9.33;;;17.70;99.90;;;;;;5145985;27;20179;-84
2021/10/16 09:39:55;;;;;;;10.03;8.77;;;17.80;99.90;;;;;;5147283;27;20210;-84
2021/10/16 09:42:45;;;;;;;12.33;9.27;;;17.80;99.90;;;;;;5146000;27;20169;-84
2021/10/16 09:45:14;;;;;;;12.07;9.40;;;17.60;99.90;;;;;;5146919;27;20175;-84
2021/10/16 09:47:54;;;;;;;10.83;8.97;;;17.80;99.90;;;;;;5146881;27;20169;-84
2021/10/16 09:50:20;;;;;;;12.03;9.67;;;18.00;99.90;;;;;;5145016;27;20222;-86
2021/10/16 09:52:48;;;;;;;9.87;8.77;;;18.10;99.90;;;;;;5145637;27;20177;-84
2021/10/16 09:55:14;;;;;;;11.27;9.20;;;18.20;99.90;;;;;;5145938;27;20223;-84
2021/10/16 09:57:42;;;;;;;10.97;8.90;;;18.30;99.90;;;;;;5145970;27;20180;-84
2021/10/16 10:00:08;;;;;;;10.00;9.00;;;18.00;99.90;;;;;;5144389;27;20214;-84
2021/10/16 10:02:34;;;;;;;10.43;8.20;;;17.80;99.90;;;;;;5145318;27;20572;-84
2021/10/16 10:05:06;;;;;;;13.20;9.17;;;17.70;99.90;;;;;;5144996;27;20189;-84
2021/10/16 10:07:33;;;;;;;9.47;8.33;;;18.10;99.90;;;;;;5143495;27;20180;-84
2021/10/16 10:09:59;;;;;;;10.27;8.60;;;17.50;99.90;;;;;;5144638;27;20242;-84
2021/10/16 10:12:26;;;;;;;8.87;7.70;;;17.40;99.90;;;;;;5143069;27;20217;-84
2021/10/16 10:14:53;;;;;;;10.33;8.33;;;17.90;99.90;;;;;;5140416;27;20233;-84
2021/10/16 10:17:23;;;;;;;11.00;8.20;;;17.90;99.90;;;;;;5138294;27;20536;-84
2021/10/16 10:19:54;;;;;;;10.80;7.77;;;18.20;99.90;;;;;;5136835;27;20301;-85
2021/10/16 10:22:21;;;;;;;11.00;8.23;;;18.60;99.90;;;;;;5145425;27;20225;-85
2021/10/16 10:24:50;;;;;;;9.33;8.10;;;18.90;99.90;;;;;;5146091;27;20181;-84
2021/10/16 10:27:20;;;;;;;9.73;8.67;;;18.10;99.90;;;;;;5145047;27;20195;-84
2021/10/16 10:29:49;;;;;;;11.50;8.57;;;17.70;99.90;;;;;;5145084;27;20219;-84
2021/10/16 10:32:25;;;;;;;10.53;8.53;;;17.70;99.90;;;;;;5146762;27;20249;-84
2021/10/16 10:35:08;;;;;;;9.87;8.37;;;17.50;99.90;;;;;;5145616;27;20197;-84
2021/10/16 10:37:38;;;;;;;8.87;7.97;;;17.10;99.90;;;;;;5145877;27;20179;-85
2021/10/16 10:40:21;;;;;;;9.33;8.33;;;16.80;99.90;;;;;;5145960;27;20211;-85
2021/10/16 10:42:50;;;;;;;11.37;8.60;;;16.80;99.90;;;;;;5146322;27;20204;-84
2021/10/16 10:45:35;;;;;;;9.47;8.47;;;16.50;99.90;;;;;;5145426;27;20179;-85
2021/10/16 10:48:12;;;;;;;10.07;7.53;;;16.00;99.90;;;;;;5149136;27;20529;-84
2021/10/16 10:50:39;;;;;;;9.57;8.20;;;15.30;99.90;;;;;;5147968;27;20194;-84
2021/10/16 10:53:06;;;;;;;10.93;7.47;;;15.10;99.90;;;;;;5148920;27;20181;-85
2021/10/16 10:55:56;;;;;;;10.73;7.47;;;14.70;99.90;;;;;;5148423;27;20177;-84
2021/10/16 10:58:23;;;;;;;8.87;7.93;;;14.40;99.90;;;;;;5148275;27;20167;-84
2021/10/16 11:00:51;;;;;;;12.47;7.40;;;14.30;99.90;;;;;;5145573;27;20636;-84
2021/10/16 11:03:29;;;;;;;11.60;8.23;;;14.70;99.90;;;;;;5145897;27;20218;-84
2021/10/16 11:06:10;;;;;;;10.00;8.37;;;15.00;99.90;;;;;;5144808;27;20179;-84
2021/10/16 11:08:37;;;;;;;11.70;8.40;;;16.90;99.90;;;;;;5143815;27;20186;-84
2021/10/16 11:11:04;;;;;;;12.80;8.73;;;16.90;99.90;;;;;;5145247;27;20182;-84
2021/10/16 11:13:33;;;;;;;12.20;9.13;;;17.00;99.90;;;;;;5143713;27;20185;-84
2021/10/16 11:16:04;;;;;;;11.80;8.70;;;16.90;99.90;;;;;;5144041;27;20627;-83
2021/10/16 11:18:31;;;;;;;8.33;7.43;;;18.10;99.90;;;;;;5144335;27;20182;-84
2021/10/16 11:21:05;;;;;;;11.07;8.23;;;18.10;99.90;;;;;;5145106;27;20171;-84
2021/10/16 11:23:31;;;;;;;7.60;6.80;;;19.00;99.90;;;;;;5144767;27;20173;-84
2021/10/16 11:25:59;;;;;;;9.30;7.30;;;19.80;99.90;;;;;;5144518;27;20193;-84
2021/10/16 11:28:26;;;;;;;8.53;7.50;;;20.60;99.90;;;;;;5144470;27;20204;-84
2021/10/16 11:30:54;;;;;;;9.20;7.93;;;21.00;99.90;;;;;;5144780;27;20192;-83
2021/10/16 11:33:25;;;;;;;9.00;7.00;;;21.20;99.90;;;;;;5144583;27;20256;-84
2021/10/16 11:35:57;;;;;;;9.63;7.60;;;21.30;99.90;;;;;;5144843;27;20205;-84
2021/10/16 11:38:38;;;;;;;8.03;7.20;;;21.50;99.90;;;;;;5144170;27;20240;-84
2021/10/16 11:41:05;;;;;;;7.97;6.97;;;21.80;99.90;;;;;;5145945;27;20564;-85
2021/10/16 11:43:31;;;;;;;7.40;6.33;;;21.80;99.90;;;;;;5144636;27;20183;-82
2021/10/16 11:45:57;;;;;;;7.90;7.20;;;22.00;99.60;;;;;;5144110;27;20175;-82
2021/10/16 11:48:25;;;;;;;11.80;8.23;;;21.80;99.90;;;;;;5142051;27;20171;-82
2021/10/16 11:50:54;;;;;;;9.03;7.77;;;20.00;99.90;;;;;;5142958;27;20281;-82
2021/10/16 11:53:22;;;;;;;9.37;7.50;;;18.80;99.90;;;;;;5144145;27;20175;-84
2021/10/16 11:55:52;;;;;;;7.23;6.53;;;18.00;99.90;;;;;;5145662;27;20167;-82
2021/10/16 11:58:20;;;;;;;9.13;7.40;;;18.90;99.90;;;;;;5145864;28;20200;-82
2021/10/16 12:00:48;;;;;;;9.17;6.70;;;20.00;99.90;;;;;;5144148;28;20203;-84
2021/10/16 12:03:17;;;;;;;7.30;6.23;;;21.20;99.90;;;;;;5144399;28;20245;-82
2021/10/16 12:05:45;;;;;;;11.87;7.13;;;22.10;99.40;;;;;;5146310;28;20175;-84
2021/10/16 12:08:17;;;;;;;9.50;6.63;;;22.10;97.20;;;;;;5144384;28;20171;-82
2021/10/16 12:10:56;;;;;;;7.40;6.63;;;20.40;98.60;;;;;;5144035;28;20206;-84
2021/10/16 12:13:41;;;;;;;13.57;7.03;;;19.60;99.90;;;;;;5144379;28;20182;-82
2021/10/16 12:16:15;;;;;;;7.33;6.63;;;20.70;99.90;;;;;;5145620;28;20175;-82
2021/10/16 12:18:59;;;;;;;8.10;6.00;;;21.30;99.10;;;;;;5143134;28;20202;-82
2021/10/16 12:21:29;;;;;;;7.80;5.80;;;22.30;97.10;;;;;;5143646;28;20531;-82
2021/10/16 12:23:56;;;;;;;6.10;5.47;;;22.80;94.50;;;;;;5143019;28;20212;-82
2021/10/16 12:26:28;;;;;;;7.17;6.47;;;23.10;94.80;;;;;;5145772;28;20231;-84
2021/10/16 12:28:55;;;;;;;6.20;5.63;;;23.50;94.50;;;;;;5146152;28;20558;-83
2021/10/16 12:31:22;;;;;;;8.23;5.63;;;23.80;92.50;;;;;;5144630;28;20182;-82
2021/10/16 12:33:57;;;;;;;7.77;5.50;;;23.40;91.50;;;;;;5145026;27;20190;-83
2021/10/16 12:36:27;;;;;;;10.03;7.17;;;23.50;91.30;;;;;;5144786;28;20308;-83
2021/10/16 12:38:52;;;;;;;9.23;5.87;;;23.90;92.10;;;;;;5146323;28;20213;-83
2021/10/16 12:41:25;;;;;;;7.30;6.60;;;23.80;91.00;;;;;;5145488;28;20576;-83
2021/10/16 12:43:53;;;;;;;6.70;6.00;;;23.40;91.50;;;;;;5143905;28;20223;-83
2021/10/16 12:46:28;;;;;;;7.47;5.87;;;22.90;92.10;;;;;;5145714;28;20178;-83
2021/10/16 12:48:54;;;;;;;8.00;5.67;;;23.10;91.20;;;;;;5151259;28;20201;-82